Genoa, Arkansas
Current Conditions -  °F | °C
As of 1:53 PM on Sunday 25 Jan 2015 (Local Time) from KTXK Reporting Station
Light Rain Light Rain  
Wind Chill: 62°   Ceiling: Unl
Heat Index: 62°   Visibility: 10mi
Dew Point: 33°   Wind: 23mph
Humidity: 34%   Direction: 280°W
Pressure: 29.85"   Gusts: 33mph
Location:  33.38°N, 93.91°W
Report Text: KTXK 251953Z 28020G29KT 10SM -RA FEW060 17/01 A2985 RMK AO2 PK WND 28035/1940 RAB52 SLP108 P0000 T01670006
Loading
Personal Weather Stations






























Interactive Weather Map New forecast layout! Learn more

10-Day Weather Forecast

Advertisements
Track Severe Weather on mobile